sensor_id;sensor_type;location;lat;lon;timestamp;temperature;humidity
24232;DHT22;12364;47.810;8.810;2023-01-16T04:48:00;5.70;95.60
24232;DHT22;12364;47.810;8.810;2023-01-16T04:50:42;5.50;95.60
24232;DHT22;12364;47.810;8.810;2023-01-16T04:53:12;5.90;95.20
24232;DHT22;12364;47.810;8.810;2023-01-16T04:55:59;5.80;95.40
24232;DHT22;12364;47.810;8.810;2023-01-16T04:58:42;6.00;95.20
24232;DHT22;12364;47.810;8.810;2023-01-16T05:01:30;5.40;95.00
24232;DHT22;12364;47.810;8.810;2023-01-16T05:04:25;5.60;95.10
24232;DHT22;12364;47.810;8.810;2023-01-16T05:10:38;5.80;95.10
24232;DHT22;12364;47.810;8.810;2023-01-16T05:16:45;5.60;95.30
24232;DHT22;12364;47.810;8.810;2023-01-16T05:19:56;5.50;95.10
24232;DHT22;12364;47.810;8.810;2023-01-16T05:22:58;5.50;95.40
24232;DHT22;12364;47.810;8.810;2023-01-16T05:26:01;5.50;95.50
24232;DHT22;12364;47.810;8.810;2023-01-16T05:29:09;5.50;95.10
24232;DHT22;12364;47.810;8.810;2023-01-16T05:35:45;5.40;94.80
24232;DHT22;12364;47.810;8.810;2023-01-16T05:38:24;5.60;95.80
24232;DHT22;12364;47.810;8.810;2023-01-16T05:41:20;5.30;95.40
24232;DHT22;12364;47.810;8.810;2023-01-16T05:44:25;5.30;95.20
24232;DHT22;12364;47.810;8.810;2023-01-16T05:47:23;5.00;95.20
24232;DHT22;12364;47.810;8.810;2023-01-16T05:50:02;5.50;95.20
24232;DHT22;12364;47.810;8.810;2023-01-16T05:52:51;5.30;94.60
24232;DHT22;12364;47.810;8.810;2023-01-16T05:55:45;5.30;95.10
24232;DHT22;12364;47.810;8.810;2023-01-16T05:58:44;5.00;95.00
24232;DHT22;12364;47.810;8.810;2023-01-16T06:01:44;5.50;95.30
24232;DHT22;12364;47.810;8.810;2023-01-16T06:04:11;5.40;95.10
24232;DHT22;12364;47.810;8.810;2023-01-16T06:06:39;5.10;95.20
24232;DHT22;12364;47.810;8.810;2023-01-16T06:09:06;5.30;95.50
24232;DHT22;12364;47.810;8.810;2023-01-16T06:11:33;5.00;95.60
24232;DHT22;12364;47.810;8.810;2023-01-16T06:14:00;5.10;95.20
24232;DHT22;12364;47.810;8.810;2023-01-16T06:17:12;5.00;95.30
24232;DHT22;12364;47.810;8.810;2023-01-16T06:27:11;5.10;96.00
24232;DHT22;12364;47.810;8.810;2023-01-16T06:30:17;5.00;95.80
24232;DHT22;12364;47.810;8.810;2023-01-16T06:33:36;5.10;96.00
24232;DHT22;12364;47.810;8.810;2023-01-16T06:39:21;5.20;96.00
24232;DHT22;12364;47.810;8.810;2023-01-16T06:41:48;5.10;95.70
24232;DHT22;12364;47.810;8.810;2023-01-16T06:44:15;5.10;95.80
24232;DHT22;12364;47.810;8.810;2023-01-16T06:46:42;5.10;95.90
24232;DHT22;12364;47.810;8.810;2023-01-16T06:49:10;5.10;95.90
24232;DHT22;12364;47.810;8.810;2023-01-16T06:51:37;5.10;95.90
24232;DHT22;12364;47.810;8.810;2023-01-16T06:54:04;5.10;95.90
24232;DHT22;12364;47.810;8.810;2023-01-16T06:56:31;5.10;96.00
24232;DHT22;12364;47.810;8.810;2023-01-16T06:58:58;5.00;95.90
24232;DHT22;12364;47.810;8.810;2023-01-16T07:01:25;5.00;95.50
24232;DHT22;12364;47.810;8.810;2023-01-16T07:03:52;5.00;95.60
24232;DHT22;12364;47.810;8.810;2023-01-16T07:06:19;4.90;95.60
24232;DHT22;12364;47.810;8.810;2023-01-16T07:08:46;4.90;95.90
24232;DHT22;12364;47.810;8.810;2023-01-16T07:11:17;4.80;95.80
24232;DHT22;12364;47.810;8.810;2023-01-16T07:13:44;4.80;95.80
24232;DHT22;12364;47.810;8.810;2023-01-16T07:16:11;4.80;96.00
24232;DHT22;12364;47.810;8.810;2023-01-16T07:18:58;4.80;96.00
24232;DHT22;12364;47.810;8.810;2023-01-16T07:21:44;4.80;96.00
24232;DHT22;12364;47.810;8.810;2023-01-16T07:24:31;4.80;95.90
24232;DHT22;12364;47.810;8.810;2023-01-16T07:27:00;4.80;96.10
24232;DHT22;12364;47.810;8.810;2023-01-16T07:29:29;4.80;96.40
24232;DHT22;12364;47.810;8.810;2023-01-16T07:31:57;4.90;95.90
24232;DHT22;12364;47.810;8.810;2023-01-16T07:34:25;4.80;95.80
24232;DHT22;12364;47.810;8.810;2023-01-16T07:36:52;4.80;96.10
24232;DHT22;12364;47.810;8.810;2023-01-16T07:39:19;4.80;96.10
24232;DHT22;12364;47.810;8.810;2023-01-16T07:41:46;4.70;96.10
24232;DHT22;12364;47.810;8.810;2023-01-16T07:44:24;4.80;96.60
24232;DHT22;12364;47.810;8.810;2023-01-16T07:46:51;4.80;96.30
24232;DHT22;12364;47.810;8.810;2023-01-16T07:49:18;4.90;96.40
24232;DHT22;12364;47.810;8.810;2023-01-16T07:51:45;4.90;96.30
24232;DHT22;12364;47.810;8.810;2023-01-16T07:54:12;4.90;96.30
24232;DHT22;12364;47.810;8.810;2023-01-16T07:56:39;4.80;96.10
24232;DHT22;12364;47.810;8.810;2023-01-16T07:59:06;4.80;96.30
24232;DHT22;12364;47.810;8.810;2023-01-16T08:01:34;4.90;96.50
24232;DHT22;12364;47.810;8.810;2023-01-16T08:04:01;4.90;96.50
24232;DHT22;12364;47.810;8.810;2023-01-16T08:06:28;4.90;96.40
24232;DHT22;12364;47.810;8.810;2023-01-16T08:08:55;4.90;96.30
24232;DHT22;12364;47.810;8.810;2023-01-16T08:11:22;4.90;96.40
24232;DHT22;12364;47.810;8.810;2023-01-16T08:14:06;5.00;96.60
24232;DHT22;12364;47.810;8.810;2023-01-16T08:16:33;5.00;96.60
24232;DHT22;12364;47.810;8.810;2023-01-16T08:19:00;5.00;96.80
24232;DHT22;12364;47.810;8.810;2023-01-16T08:21:27;5.00;96.70
24232;DHT22;12364;47.810;8.810;2023-01-16T08:23:54;5.10;96.70
24232;DHT22;12364;47.810;8.810;2023-01-16T08:26:21;5.10;96.80
24232;DHT22;12364;47.810;8.810;2023-01-16T08:28:48;5.10;96.70
24232;DHT22;12364;47.810;8.810;2023-01-16T08:31:15;5.10;96.70
24232;DHT22;12364;47.810;8.810;2023-01-16T08:33:44;5.20;96.80
24232;DHT22;12364;47.810;8.810;2023-01-16T08:36:13;5.20;96.60
24232;DHT22;12364;47.810;8.810;2023-01-16T08:38:43;5.10;96.50
24232;DHT22;12364;47.810;8.810;2023-01-16T08:41:10;5.10;96.90
24232;DHT22;12364;47.810;8.810;2023-01-16T08:43:56;5.00;96.80
24232;DHT22;12364;47.810;8.810;2023-01-16T08:46:42;4.70;97.60
24232;DHT22;12364;47.810;8.810;2023-01-16T08:49:28;4.60;97.40
24232;DHT22;12364;47.810;8.810;2023-01-16T08:52:14;4.50;97.80
24232;DHT22;12364;47.810;8.810;2023-01-16T08:54:41;4.60;97.70
24232;DHT22;12364;47.810;8.810;2023-01-16T08:57:08;4.80;97.80
24232;DHT22;12364;47.810;8.810;2023-01-16T08:59:36;4.90;97.50
24232;DHT22;12364;47.810;8.810;2023-01-16T09:02:03;5.00;97.60
24232;DHT22;12364;47.810;8.810;2023-01-16T09:04:31;5.10;97.90
24232;DHT22;12364;47.810;8.810;2023-01-16T09:06:58;5.10;97.50
24232;DHT22;12364;47.810;8.810;2023-01-16T09:09:25;5.20;98.00
24232;DHT22;12364;47.810;8.810;2023-01-16T09:11:55;5.30;97.80
24232;DHT22;12364;47.810;8.810;2023-01-16T09:14:40;5.20;97.30
24232;DHT22;12364;47.810;8.810;2023-01-16T09:17:08;5.00;97.10
24232;DHT22;12364;47.810;8.810;2023-01-16T09:19:35;5.00;97.30
24232;DHT22;12364;47.810;8.810;2023-01-16T09:22:03;5.00;97.00
24232;DHT22;12364;47.810;8.810;2023-01-16T09:24:33;5.00;96.90
24232;DHT22;12364;47.810;8.810;2023-01-16T09:27:00;5.10;96.80
24232;DHT22;12364;47.810;8.810;2023-01-16T09:29:29;5.10;96.20
24232;DHT22;12364;47.810;8.810;2023-01-16T09:31:56;5.10;96.20
24232;DHT22;12364;47.810;8.810;2023-01-16T09:34:23;5.30;96.40
24232;DHT22;12364;47.810;8.810;2023-01-16T09:36:51;5.50;96.70
24232;DHT22;12364;47.810;8.810;2023-01-16T09:39:17;5.60;96.40
24232;DHT22;12364;47.810;8.810;2023-01-16T09:41:49;5.70;96.50
24232;DHT22;12364;47.810;8.810;2023-01-16T09:44:38;5.80;96.30
24232;DHT22;12364;47.810;8.810;2023-01-16T09:47:05;5.90;96.40
24232;DHT22;12364;47.810;8.810;2023-01-16T09:49:36;6.00;95.70
24232;DHT22;12364;47.810;8.810;2023-01-16T09:52:06;6.00;95.10
24232;DHT22;12364;47.810;8.810;2023-01-16T09:54:56;6.00;95.20
24232;DHT22;12364;47.810;8.810;2023-01-16T09:57:42;6.00;94.80
24232;DHT22;12364;47.810;8.810;2023-01-16T10:00:30;6.00;94.80
24232;DHT22;12364;47.810;8.810;2023-01-16T10:02:57;6.00;94.80
24232;DHT22;12364;47.810;8.810;2023-01-16T10:05:28;6.10;95.30
24232;DHT22;12364;47.810;8.810;2023-01-16T10:31:43;6.20;94.90
24232;DHT22;12364;47.810;8.810;2023-01-16T10:34:15;6.30;94.90
24232;DHT22;12364;47.810;8.810;2023-01-16T10:36:48;6.30;94.30
24232;DHT22;12364;47.810;8.810;2023-01-16T10:39:17;6.40;94.20
24232;DHT22;12364;47.810;8.810;2023-01-16T10:41:47;6.40;94.60
24232;DHT22;12364;47.810;8.810;2023-01-16T10:44:36;6.50;94.60
24232;DHT22;12364;47.810;8.810;2023-01-16T10:47:23;6.50;94.40
24232;DHT22;12364;47.810;8.810;2023-01-16T10:50:09;6.60;94.30
24232;DHT22;12364;47.810;8.810;2023-01-16T10:52:36;6.60;94.50
24232;DHT22;12364;47.810;8.810;2023-01-16T10:55:03;6.60;95.20
24232;DHT22;12364;47.810;8.810;2023-01-16T10:57:31;6.70;95.00
24232;DHT22;12364;47.810;8.810;2023-01-16T11:00:06;6.70;95.40
24232;DHT22;12364;47.810;8.810;2023-01-16T11:02:40;6.70;95.20
24232;DHT22;12364;47.810;8.810;2023-01-16T11:05:23;6.70;95.20
24232;DHT22;12364;47.810;8.810;2023-01-16T11:07:52;6.70;95.40
24232;DHT22;12364;47.810;8.810;2023-01-16T11:10:20;6.70;95.50
24232;DHT22;12364;47.810;8.810;2023-01-16T11:12:47;7.00;95.60
24232;DHT22;12364;47.810;8.810;2023-01-16T11:15:33;6.80;95.40
24232;DHT22;12364;47.810;8.810;2023-01-16T11:18:26;6.90;95.10
24232;DHT22;12364;47.810;8.810;2023-01-16T11:21:00;6.90;95.50
24232;DHT22;12364;47.810;8.810;2023-01-16T11:23:34;6.90;95.20
24232;DHT22;12364;47.810;8.810;2023-01-16T11:26:02;7.00;95.90
24232;DHT22;12364;47.810;8.810;2023-01-16T11:28:31;7.00;95.80
24232;DHT22;12364;47.810;8.810;2023-01-16T11:31:07;7.00;95.50
24232;DHT22;12364;47.810;8.810;2023-01-16T11:33:38;7.10;95.80
24232;DHT22;12364;47.810;8.810;2023-01-16T11:36:07;7.10;96.00
24232;DHT22;12364;47.810;8.810;2023-01-16T11:38:35;7.10;96.00
24232;DHT22;12364;47.810;8.810;2023-01-16T11:41:03;7.20;95.70
24232;DHT22;12364;47.810;8.810;2023-01-16T11:43:31;7.20;95.20
24232;DHT22;12364;47.810;8.810;2023-01-16T11:46:30;7.20;95.50
24232;DHT22;12364;47.810;8.810;2023-01-16T11:48:59;7.20;95.10
24232;DHT22;12364;47.810;8.810;2023-01-16T11:51:33;7.20;95.50
24232;DHT22;12364;47.810;8.810;2023-01-16T11:54:03;7.20;95.10
24232;DHT22;12364;47.810;8.810;2023-01-16T12:00:02;7.20;95.40
24232;DHT22;12364;47.810;8.810;2023-01-16T12:08:02;7.30;95.70
24232;DHT22;12364;47.810;8.810;2023-01-16T12:13:03;7.30;96.30
24232;DHT22;12364;47.810;8.810;2023-01-16T12:18:34;7.30;95.80
24232;DHT22;12364;47.810;8.810;2023-01-16T12:21:15;7.30;96.00
24232;DHT22;12364;47.810;8.810;2023-01-16T12:26:24;7.30;95.90
24232;DHT22;12364;47.810;8.810;2023-01-16T12:29:02;7.30;96.30
24232;DHT22;12364;47.810;8.810;2023-01-16T12:41:43;7.40;96.40
24232;DHT22;12364;47.810;8.810;2023-01-16T12:52:14;7.60;96.80
24232;DHT22;12364;47.810;8.810;2023-01-16T12:54:56;7.60;96.50
24232;DHT22;12364;47.810;8.810;2023-01-16T13:00:02;7.70;96.10
24232;DHT22;12364;47.810;8.810;2023-01-16T13:02:35;7.70;96.20
24232;DHT22;12364;47.810;8.810;2023-01-16T13:05:04;7.70;95.90
24232;DHT22;12364;47.810;8.810;2023-01-16T13:07:35;7.70;95.70
24232;DHT22;12364;47.810;8.810;2023-01-16T13:12:49;7.80;95.50
24232;DHT22;12364;47.810;8.810;2023-01-16T13:15:36;7.80;95.90
24232;DHT22;12364;47.810;8.810;2023-01-16T13:18:11;7.80;95.50
24232;DHT22;12364;47.810;8.810;2023-01-16T13:20:40;7.80;95.40
24232;DHT22;12364;47.810;8.810;2023-01-16T13:23:11;7.80;95.70
24232;DHT22;12364;47.810;8.810;2023-01-16T13:25:44;7.80;95.40
24232;DHT22;12364;47.810;8.810;2023-01-16T13:30:41;7.80;95.90
24232;DHT22;12364;47.810;8.810;2023-01-16T13:33:15;7.80;96.20
24232;DHT22;12364;47.810;8.810;2023-01-16T13:35:54;7.80;96.40
24232;DHT22;12364;47.810;8.810;2023-01-16T13:38:28;7.80;96.00
24232;DHT22;12364;47.810;8.810;2023-01-16T13:41:14;7.80;96.30
24232;DHT22;12364;47.810;8.810;2023-01-16T13:43:44;7.90;96.20
24232;DHT22;12364;47.810;8.810;2023-01-16T13:46:30;7.90;96.70
24232;DHT22;12364;47.810;8.810;2023-01-16T13:48:59;7.90;96.40
24232;DHT22;12364;47.810;8.810;2023-01-16T13:51:27;7.90;95.80
24232;DHT22;12364;47.810;8.810;2023-01-16T13:53:55;7.90;96.10
24232;DHT22;12364;47.810;8.810;2023-01-16T13:56:26;7.90;95.80
24232;DHT22;12364;47.810;8.810;2023-01-16T13:59:00;7.90;96.00
24232;DHT22;12364;47.810;8.810;2023-01-16T14:04:24;7.90;95.80
24232;DHT22;12364;47.810;8.810;2023-01-16T14:09:58;7.90;96.00
24232;DHT22;12364;47.810;8.810;2023-01-16T14:12:31;8.00;95.90
24232;DHT22;12364;47.810;8.810;2023-01-16T14:15:14;8.00;95.90
24232;DHT22;12364;47.810;8.810;2023-01-16T14:18:01;8.00;95.40
24232;DHT22;12364;47.810;8.810;2023-01-16T14:20:35;8.00;95.50
24232;DHT22;12364;47.810;8.810;2023-01-16T14:23:04;8.10;95.60
24232;DHT22;12364;47.810;8.810;2023-01-16T14:25:51;8.10;95.60
24232;DHT22;12364;47.810;8.810;2023-01-16T14:28:19;8.10;95.70
24232;DHT22;12364;47.810;8.810;2023-01-16T14:30:47;8.10;95.40
24232;DHT22;12364;47.810;8.810;2023-01-16T14:33:16;8.10;95.00
24232;DHT22;12364;47.810;8.810;2023-01-16T14:35:44;8.10;94.60
24232;DHT22;12364;47.810;8.810;2023-01-16T14:38:18;8.00;95.00
24232;DHT22;12364;47.810;8.810;2023-01-16T14:40:47;8.10;94.50
24232;DHT22;12364;47.810;8.810;2023-01-16T14:49:58;8.00;94.60
24232;DHT22;12364;47.810;8.810;2023-01-16T14:52:48;7.90;94.40
24232;DHT22;12364;47.810;8.810;2023-01-16T14:55:47;7.90;94.90
24232;DHT22;12364;47.810;8.810;2023-01-16T15:01:01;7.80;94.70
24232;DHT22;12364;47.810;8.810;2023-01-16T15:03:47;7.90;94.60
24232;DHT22;12364;47.810;8.810;2023-01-16T15:06:14;7.90;95.20
24232;DHT22;12364;47.810;8.810;2023-01-16T15:08:41;8.00;95.20
24232;DHT22;12364;47.810;8.810;2023-01-16T15:11:26;8.00;94.90
24232;DHT22;12364;47.810;8.810;2023-01-16T15:14:05;8.00;95.10
24232;DHT22;12364;47.810;8.810;2023-01-16T15:19:59;8.10;94.90
24232;DHT22;12364;47.810;8.810;2023-01-16T15:22:45;8.10;95.10
24232;DHT22;12364;47.810;8.810;2023-01-16T15:28:01;8.10;95.30
24232;DHT22;12364;47.810;8.810;2023-01-16T15:30:33;8.10;94.60
24232;DHT22;12364;47.810;8.810;2023-01-16T15:33:00;8.10;94.20
24232;DHT22;12364;47.810;8.810;2023-01-16T15:35:56;8.10;94.80
24232;DHT22;12364;47.810;8.810;2023-01-16T15:38:26;8.10;94.30
24232;DHT22;12364;47.810;8.810;2023-01-16T15:40:52;8.10;95.30
24232;DHT22;12364;47.810;8.810;2023-01-16T15:43:23;8.10;94.90
24232;DHT22;12364;47.810;8.810;2023-01-16T15:46:20;8.10;94.70
24232;DHT22;12364;47.810;8.810;2023-01-16T15:51:56;8.00;95.20
24232;DHT22;12364;47.810;8.810;2023-01-16T15:54:24;8.00;95.70
24232;DHT22;12364;47.810;8.810;2023-01-16T15:56:51;8.00;95.60
24232;DHT22;12364;47.810;8.810;2023-01-16T15:59:23;8.00;96.20
24232;DHT22;12364;47.810;8.810;2023-01-16T16:01:51;8.00;96.60
24232;DHT22;12364;47.810;8.810;2023-01-16T16:04:18;7.90;96.70
24232;DHT22;12364;47.810;8.810;2023-01-16T16:06:46;7.70;97.10
24232;DHT22;12364;47.810;8.810;2023-01-16T16:09:20;7.60;97.40
24232;DHT22;12364;47.810;8.810;2023-01-16T16:11:48;7.60;98.00
24232;DHT22;12364;47.810;8.810;2023-01-16T16:17:18;7.50;98.20
24232;DHT22;12364;47.810;8.810;2023-01-16T16:22:49;7.50;98.80
24232;DHT22;12364;47.810;8.810;2023-01-16T16:27:49;6.90;99.90
24232;DHT22;12364;47.810;8.810;2023-01-16T16:30:19;7.00;99.90
24232;DHT22;12364;47.810;8.810;2023-01-16T16:32:48;7.00;99.90
24232;DHT22;12364;47.810;8.810;2023-01-16T16:35:33;7.00;99.90
24232;DHT22;12364;47.810;8.810;2023-01-16T16:38:00;7.10;99.90
24232;DHT22;12364;47.810;8.810;2023-01-16T16:40:28;7.10;99.90
24232;DHT22;12364;47.810;8.810;2023-01-16T16:42:56;7.20;99.90
24232;DHT22;12364;47.810;8.810;2023-01-16T16:45:27;7.20;99.90
24232;DHT22;12364;47.810;8.810;2023-01-16T16:48:18;7.20;99.90
24232;DHT22;12364;47.810;8.810;2023-01-16T16:50:46;7.30;99.90
24232;DHT22;12364;47.810;8.810;2023-01-16T16:53:14;7.30;99.90
24232;DHT22;12364;47.810;8.810;2023-01-16T16:55:43;7.20;99.90
24232;DHT22;12364;47.810;8.810;2023-01-16T16:58:13;6.70;99.90
24232;DHT22;12364;47.810;8.810;2023-01-16T17:00:41;6.00;99.90
24232;DHT22;12364;47.810;8.810;2023-01-16T17:03:18;5.60;99.90
24232;DHT22;12364;47.810;8.810;2023-01-16T17:05:46;5.20;99.90
24232;DHT22;12364;47.810;8.810;2023-01-16T17:08:19;5.10;99.90
24232;DHT22;12364;47.810;8.810;2023-01-16T17:10:46;5.10;99.90
24232;DHT22;12364;47.810;8.810;2023-01-16T17:13:16;5.20;99.90
24232;DHT22;12364;47.810;8.810;2023-01-16T17:15:43;5.40;99.90
24232;DHT22;12364;47.810;8.810;2023-01-16T17:18:11;5.40;99.90
24232;DHT22;12364;47.810;8.810;2023-01-16T17:20:39;5.40;99.90
24232;DHT22;12364;47.810;8.810;2023-01-16T17:23:13;5.40;99.90
24232;DHT22;12364;47.810;8.810;2023-01-16T17:25:40;5.50;99.90
24232;DHT22;12364;47.810;8.810;2023-01-16T17:28:09;5.50;99.90
24232;DHT22;12364;47.810;8.810;2023-01-16T17:30:36;5.60;99.90
24232;DHT22;12364;47.810;8.810;2023-01-16T17:33:10;5.60;99.90
24232;DHT22;12364;47.810;8.810;2023-01-16T17:35:38;5.60;99.90
24232;DHT22;12364;47.810;8.810;2023-01-16T17:38:12;5.50;99.90
24232;DHT22;12364;47.810;8.810;2023-01-16T17:40:40;5.50;99.90
24232;DHT22;12364;47.810;8.810;2023-01-16T17:43:13;5.40;99.90
24232;DHT22;12364;47.810;8.810;2023-01-16T17:46:01;5.60;99.90
24232;DHT22;12364;47.810;8.810;2023-01-16T17:48:29;5.70;99.90
24232;DHT22;12364;47.810;8.810;2023-01-16T17:50:57;5.70;99.90
24232;DHT22;12364;47.810;8.810;2023-01-16T17:53:28;5.60;99.90
24232;DHT22;12364;47.810;8.810;2023-01-16T17:55:56;5.70;99.90
24232;DHT22;12364;47.810;8.810;2023-01-16T17:58:25;5.80;99.90
24232;DHT22;12364;47.810;8.810;2023-01-16T18:00:55;5.70;99.90
24232;DHT22;12364;47.810;8.810;2023-01-16T18:03:23;5.90;99.90
24232;DHT22;12364;47.810;8.810;2023-01-16T18:05:50;6.10;99.90
24232;DHT22;12364;47.810;8.810;2023-01-16T18:08:17;6.40;99.90
24232;DHT22;12364;47.810;8.810;2023-01-16T18:10:44;6.60;99.90
24232;DHT22;12364;47.810;8.810;2023-01-16T18:13:11;6.80;99.90
24232;DHT22;12364;47.810;8.810;2023-01-16T18:15:56;6.90;99.90
24232;DHT22;12364;47.810;8.810;2023-01-16T18:18:42;7.00;99.90
24232;DHT22;12364;47.810;8.810;2023-01-16T18:21:10;7.10;99.90
24232;DHT22;12364;47.810;8.810;2023-01-16T18:23:55;7.10;99.90
24232;DHT22;12364;47.810;8.810;2023-01-16T18:26:23;7.20;99.90
24232;DHT22;12364;47.810;8.810;2023-01-16T18:28:50;7.20;99.90
24232;DHT22;12364;47.810;8.810;2023-01-16T18:31:17;7.30;99.90
24232;DHT22;12364;47.810;8.810;2023-01-16T18:33:44;7.30;99.90
24232;DHT22;12364;47.810;8.810;2023-01-16T18:36:13;7.30;99.90
24232;DHT22;12364;47.810;8.810;2023-01-16T18:38:41;7.40;99.90
24232;DHT22;12364;47.810;8.810;2023-01-16T18:41:26;7.30;99.70
24232;DHT22;12364;47.810;8.810;2023-01-16T18:44:12;7.40;99.90
24232;DHT22;12364;47.810;8.810;2023-01-16T18:46:57;7.40;99.80
24232;DHT22;12364;47.810;8.810;2023-01-16T18:49:42;7.40;99.30
24232;DHT22;12364;47.810;8.810;2023-01-16T18:52:29;7.40;99.40
24232;DHT22;12364;47.810;8.810;2023-01-16T18:55:16;7.40;99.30
24232;DHT22;12364;47.810;8.810;2023-01-16T18:58:02;7.40;98.90
24232;DHT22;12364;47.810;8.810;2023-01-16T19:00:49;7.20;98.80
24232;DHT22;12364;47.810;8.810;2023-01-16T19:03:34;7.30;98.80
24232;DHT22;12364;47.810;8.810;2023-01-16T19:06:01;7.30;99.20
24232;DHT22;12364;47.810;8.810;2023-01-16T19:08:28;7.40;99.00
24232;DHT22;12364;47.810;8.810;2023-01-16T19:10:56;7.40;98.70
24232;DHT22;12364;47.810;8.810;2023-01-16T19:13:26;7.50;99.00
24232;DHT22;12364;47.810;8.810;2023-01-16T19:16:04;7.50;98.80
24232;DHT22;12364;47.810;8.810;2023-01-16T19:18:50;7.50;98.60
24232;DHT22;12364;47.810;8.810;2023-01-16T19:21:30;7.50;98.80
24232;DHT22;12364;47.810;8.810;2023-01-16T19:23:59;7.50;99.10
24232;DHT22;12364;47.810;8.810;2023-01-16T19:26:27;7.60;99.40
24232;DHT22;12364;47.810;8.810;2023-01-16T19:28:54;7.50;98.90
24232;DHT22;12364;47.810;8.810;2023-01-16T19:31:21;7.50;99.40
24232;DHT22;12364;47.810;8.810;2023-01-16T19:33:48;7.60;99.60
24232;DHT22;12364;47.810;8.810;2023-01-16T19:36:15;7.50;99.20
24232;DHT22;12364;47.810;8.810;2023-01-16T19:38:42;7.50;99.00
24232;DHT22;12364;47.810;8.810;2023-01-16T19:41:09;7.50;98.90
24232;DHT22;12364;47.810;8.810;2023-01-16T19:43:54;7.40;99.00
24232;DHT22;12364;47.810;8.810;2023-01-16T19:46:40;7.40;98.70
24232;DHT22;12364;47.810;8.810;2023-01-16T19:49:10;7.40;98.70
24232;DHT22;12364;47.810;8.810;2023-01-16T19:51:37;7.30;98.70
24232;DHT22;12364;47.810;8.810;2023-01-16T19:54:04;7.10;98.80
24232;DHT22;12364;47.810;8.810;2023-01-16T19:56:32;6.80;99.50
24232;DHT22;12364;47.810;8.810;2023-01-16T19:58:59;6.70;99.90
24232;DHT22;12364;47.810;8.810;2023-01-16T20:01:26;6.50;99.60
24232;DHT22;12364;47.810;8.810;2023-01-16T20:03:53;6.40;99.90
24232;DHT22;12364;47.810;8.810;2023-01-16T20:06:20;6.20;99.90
24232;DHT22;12364;47.810;8.810;2023-01-16T20:08:48;6.20;99.90
24232;DHT22;12364;47.810;8.810;2023-01-16T20:11:17;6.30;99.90
24232;DHT22;12364;47.810;8.810;2023-01-16T20:13:44;6.20;99.90
24232;DHT22;12364;47.810;8.810;2023-01-16T20:16:11;6.10;99.90
24232;DHT22;12364;47.810;8.810;2023-01-16T20:18:38;6.20;99.90
24232;DHT22;12364;47.810;8.810;2023-01-16T20:21:08;6.20;99.90
24232;DHT22;12364;47.810;8.810;2023-01-16T20:23:36;6.10;99.80
24232;DHT22;12364;47.810;8.810;2023-01-16T20:26:04;5.90;99.90
24232;DHT22;12364;47.810;8.810;2023-01-16T20:28:32;5.60;99.90
24232;DHT22;12364;47.810;8.810;2023-01-16T20:30:59;5.30;99.90
24232;DHT22;12364;47.810;8.810;2023-01-16T20:33:26;5.30;99.90
24232;DHT22;12364;47.810;8.810;2023-01-16T20:35:58;5.40;99.90
24232;DHT22;12364;47.810;8.810;2023-01-16T20:38:25;5.40;99.90
24232;DHT22;12364;47.810;8.810;2023-01-16T20:40:52;5.40;99.90
24232;DHT22;12364;47.810;8.810;2023-01-16T20:43:19;5.50;99.90
24232;DHT22;12364;47.810;8.810;2023-01-16T20:46:05;5.60;99.90
24232;DHT22;12364;47.810;8.810;2023-01-16T20:48:32;5.60;99.80
24232;DHT22;12364;47.810;8.810;2023-01-16T20:51:02;5.80;99.70
24232;DHT22;12364;47.810;8.810;2023-01-16T20:53:30;5.50;99.50
24232;DHT22;12364;47.810;8.810;2023-01-16T20:56:00;5.60;99.70
24232;DHT22;12364;47.810;8.810;2023-01-16T20:58:27;5.60;99.00
24232;DHT22;12364;47.810;8.810;2023-01-16T21:00:58;5.50;99.20
24232;DHT22;12364;47.810;8.810;2023-01-16T21:03:25;5.60;99.30
24232;DHT22;12364;47.810;8.810;2023-01-16T21:05:52;5.30;99.30
24232;DHT22;12364;47.810;8.810;2023-01-16T21:08:20;5.30;99.80
24232;DHT22;12364;47.810;8.810;2023-01-16T21:10:47;5.40;99.50
24232;DHT22;12364;47.810;8.810;2023-01-16T21:13:14;5.40;99.30
24232;DHT22;12364;47.810;8.810;2023-01-16T21:16:00;5.40;99.30
24232;DHT22;12364;47.810;8.810;2023-01-16T21:18:45;5.30;99.40
24232;DHT22;12364;47.810;8.810;2023-01-16T21:21:31;5.10;99.70
24232;DHT22;12364;47.810;8.810;2023-01-16T21:24:17;5.10;99.90
24232;DHT22;12364;47.810;8.810;2023-01-16T21:26:46;5.00;99.90
24232;DHT22;12364;47.810;8.810;2023-01-16T21:29:13;5.00;99.90
24232;DHT22;12364;47.810;8.810;2023-01-16T21:31:40;4.70;99.90
24232;DHT22;12364;47.810;8.810;2023-01-16T21:34:07;4.70;99.90
24232;DHT22;12364;47.810;8.810;2023-01-16T21:36:33;4.70;99.90
24232;DHT22;12364;47.810;8.810;2023-01-16T21:39:00;4.90;99.90
24232;DHT22;12364;47.810;8.810;2023-01-16T21:41:27;4.80;99.90
24232;DHT22;12364;47.810;8.810;2023-01-16T21:43:54;4.90;99.90
24232;DHT22;12364;47.810;8.810;2023-01-16T21:47:00;4.90;99.90
24232;DHT22;12364;47.810;8.810;2023-01-16T21:49:27;4.90;99.90
24232;DHT22;12364;47.810;8.810;2023-01-16T21:51:54;4.90;99.90
24232;DHT22;12364;47.810;8.810;2023-01-16T21:54:20;4.70;99.90
24232;DHT22;12364;47.810;8.810;2023-01-16T21:56:47;4.80;99.90
24232;DHT22;12364;47.810;8.810;2023-01-16T21:59:17;4.60;99.90
24232;DHT22;12364;47.810;8.810;2023-01-16T22:01:44;4.60;99.90
24232;DHT22;12364;47.810;8.810;2023-01-16T22:04:11;4.70;99.90
24232;DHT22;12364;47.810;8.810;2023-01-16T22:06:39;4.60;99.90
24232;DHT22;12364;47.810;8.810;2023-01-16T22:09:06;4.60;99.90
24232;DHT22;12364;47.810;8.810;2023-01-16T22:11:33;4.70;99.90
24232;DHT22;12364;47.810;8.810;2023-01-16T22:14:18;4.80;99.90
24232;DHT22;12364;47.810;8.810;2023-01-16T22:17:07;4.60;99.90
24232;DHT22;12364;47.810;8.810;2023-01-16T22:19:53;4.50;99.90
24232;DHT22;12364;47.810;8.810;2023-01-16T22:22:38;4.50;99.90
24232;DHT22;12364;47.810;8.810;2023-01-16T22:25:05;4.50;99.90
24232;DHT22;12364;47.810;8.810;2023-01-16T22:27:33;4.70;99.90
24232;DHT22;12364;47.810;8.810;2023-01-16T22:30:00;4.80;99.90
24232;DHT22;12364;47.810;8.810;2023-01-16T22:32:27;5.00;99.90
24232;DHT22;12364;47.810;8.810;2023-01-16T22:34:54;5.00;99.90
24232;DHT22;12364;47.810;8.810;2023-01-16T22:37:21;5.10;99.90
24232;DHT22;12364;47.810;8.810;2023-01-16T22:39:48;5.30;99.90
24232;DHT22;12364;47.810;8.810;2023-01-16T22:42:16;5.40;99.90
24232;DHT22;12364;47.810;8.810;2023-01-16T22:44:43;5.30;99.90
24232;DHT22;12364;47.810;8.810;2023-01-16T22:47:29;5.20;99.90
24232;DHT22;12364;47.810;8.810;2023-01-16T22:49:56;5.30;99.90
24232;DHT22;12364;47.810;8.810;2023-01-16T22:52:23;5.40;99.90
24232;DHT22;12364;47.810;8.810;2023-01-16T22:54:50;5.50;99.90
24232;DHT22;12364;47.810;8.810;2023-01-16T22:57:17;5.70;99.80
24232;DHT22;12364;47.810;8.810;2023-01-16T22:59:44;5.70;99.80
24232;DHT22;12364;47.810;8.810;2023-01-16T23:02:11;5.80;99.70
24232;DHT22;12364;47.810;8.810;2023-01-16T23:04:39;5.80;99.40
24232;DHT22;12364;47.810;8.810;2023-01-16T23:07:06;5.80;99.60
24232;DHT22;12364;47.810;8.810;2023-01-16T23:09:34;5.90;99.40
24232;DHT22;12364;47.810;8.810;2023-01-16T23:12:01;6.00;99.40